sensor_id;sensor_type;location;lat;lon;timestamp;P1;durP1;ratioP1;P2;durP2;ratioP2
59830;SDS011;45711;50.108;13.712;2023-05-08T00:00:18;8.52;;;5.75;;
59830;SDS011;45711;50.108;13.712;2023-05-08T00:02:43;8.65;;;6.40;;
59830;SDS011;45711;50.108;13.712;2023-05-08T00:05:09;11.20;;;5.97;;
59830;SDS011;45711;50.108;13.712;2023-05-08T00:07:35;8.75;;;6.22;;
59830;SDS011;45711;50.108;13.712;2023-05-08T00:10:03;8.68;;;5.60;;
59830;SDS011;45711;50.108;13.712;2023-05-08T00:12:29;9.73;;;6.15;;
59830;SDS011;45711;50.108;13.712;2023-05-08T00:14:54;11.20;;;5.95;;
59830;SDS011;45711;50.108;13.712;2023-05-08T00:17:20;9.45;;;6.00;;
59830;SDS011;45711;50.108;13.712;2023-05-08T00:19:46;8.27;;;6.20;;
59830;SDS011;45711;50.108;13.712;2023-05-08T00:22:12;10.90;;;7.10;;
59830;SDS011;45711;50.108;13.712;2023-05-08T00:24:37;9.70;;;6.47;;
59830;SDS011;45711;50.108;13.712;2023-05-08T00:27:04;12.57;;;6.93;;
59830;SDS011;45711;50.108;13.712;2023-05-08T00:29:32;10.68;;;6.57;;
59830;SDS011;45711;50.108;13.712;2023-05-08T00:31:58;8.05;;;6.28;;
59830;SDS011;45711;50.108;13.712;2023-05-08T00:34:23;8.82;;;6.30;;
59830;SDS011;45711;50.108;13.712;2023-05-08T00:36:49;8.82;;;6.45;;
59830;SDS011;45711;50.108;13.712;2023-05-08T00:39:14;9.20;;;6.72;;
59830;SDS011;45711;50.108;13.712;2023-05-08T00:41:40;9.07;;;6.55;;
59830;SDS011;45711;50.108;13.712;2023-05-08T00:44:08;10.30;;;6.40;;
59830;SDS011;45711;50.108;13.712;2023-05-08T00:46:34;11.10;;;7.25;;
59830;SDS011;45711;50.108;13.712;2023-05-08T00:49:00;11.25;;;7.10;;
59830;SDS011;45711;50.108;13.712;2023-05-08T00:51:26;8.45;;;5.93;;
59830;SDS011;45711;50.108;13.712;2023-05-08T00:53:52;8.77;;;6.50;;
59830;SDS011;45711;50.108;13.712;2023-05-08T00:56:18;9.48;;;6.40;;
59830;SDS011;45711;50.108;13.712;2023-05-08T00:58:45;11.63;;;6.35;;
59830;SDS011;45711;50.108;13.712;2023-05-08T01:01:13;9.40;;;6.55;;
59830;SDS011;45711;50.108;13.712;2023-05-08T01:03:40;10.65;;;6.60;;
59830;SDS011;45711;50.108;13.712;2023-05-08T01:06:07;10.68;;;6.47;;
59830;SDS011;45711;50.108;13.712;2023-05-08T01:08:33;8.73;;;6.05;;
59830;SDS011;45711;50.108;13.712;2023-05-08T01:11:02;9.18;;;6.47;;
59830;SDS011;45711;50.108;13.712;2023-05-08T01:13:36;8.98;;;5.80;;
59830;SDS011;45711;50.108;13.712;2023-05-08T01:16:13;8.43;;;6.03;;
59830;SDS011;45711;50.108;13.712;2023-05-08T01:18:41;12.35;;;6.53;;
59830;SDS011;45711;50.108;13.712;2023-05-08T01:21:13;10.50;;;5.97;;
59830;SDS011;45711;50.108;13.712;2023-05-08T01:23:59;8.32;;;5.70;;
59830;SDS011;45711;50.108;13.712;2023-05-08T01:27:10;8.67;;;6.10;;
59830;SDS011;45711;50.108;13.712;2023-05-08T01:30:03;8.48;;;6.40;;
59830;SDS011;45711;50.108;13.712;2023-05-08T01:32:42;9.25;;;6.30;;
59830;SDS011;45711;50.108;13.712;2023-05-08T01:35:16;13.15;;;6.45;;
59830;SDS011;45711;50.108;13.712;2023-05-08T01:37:49;10.18;;;6.32;;
59830;SDS011;45711;50.108;13.712;2023-05-08T01:42:52;10.98;;;6.53;;
59830;SDS011;45711;50.108;13.712;2023-05-08T01:45:30;11.40;;;6.40;;
59830;SDS011;45711;50.108;13.712;2023-05-08T01:48:04;12.88;;;6.65;;
59830;SDS011;45711;50.108;13.712;2023-05-08T01:50:32;8.45;;;6.18;;
59830;SDS011;45711;50.108;13.712;2023-05-08T01:53:02;14.32;;;6.95;;
59830;SDS011;45711;50.108;13.712;2023-05-08T01:55:34;9.32;;;6.38;;
59830;SDS011;45711;50.108;13.712;2023-05-08T01:58:03;10.65;;;6.55;;
59830;SDS011;45711;50.108;13.712;2023-05-08T02:00:33;13.48;;;6.78;;
59830;SDS011;45711;50.108;13.712;2023-05-08T02:03:03;8.93;;;6.68;;
59830;SDS011;45711;50.108;13.712;2023-05-08T02:05:31;8.82;;;6.20;;
59830;SDS011;45711;50.108;13.712;2023-05-08T02:08:00;9.32;;;6.32;;
59830;SDS011;45711;50.108;13.712;2023-05-08T02:10:27;10.57;;;6.72;;
59830;SDS011;45711;50.108;13.712;2023-05-08T02:12:54;8.77;;;6.90;;
59830;SDS011;45711;50.108;13.712;2023-05-08T02:15:20;9.65;;;6.80;;
59830;SDS011;45711;50.108;13.712;2023-05-08T02:17:48;10.98;;;6.88;;
59830;SDS011;45711;50.108;13.712;2023-05-08T02:20:16;10.73;;;6.68;;
59830;SDS011;45711;50.108;13.712;2023-05-08T02:22:44;11.38;;;7.40;;
59830;SDS011;45711;50.108;13.712;2023-05-08T02:25:14;9.63;;;7.10;;
59830;SDS011;45711;50.108;13.712;2023-05-08T02:27:40;9.18;;;7.18;;
59830;SDS011;45711;50.108;13.712;2023-05-08T02:30:11;14.15;;;7.40;;
59830;SDS011;45711;50.108;13.712;2023-05-08T02:32:38;12.13;;;7.95;;
59830;SDS011;45711;50.108;13.712;2023-05-08T02:35:06;12.02;;;7.95;;
59830;SDS011;45711;50.108;13.712;2023-05-08T02:37:34;10.73;;;7.40;;
59830;SDS011;45711;50.108;13.712;2023-05-08T02:40:01;11.85;;;7.45;;
59830;SDS011;45711;50.108;13.712;2023-05-08T02:42:30;13.50;;;7.97;;
59830;SDS011;45711;50.108;13.712;2023-05-08T02:44:56;11.50;;;7.55;;
59830;SDS011;45711;50.108;13.712;2023-05-08T02:47:22;9.48;;;6.90;;
59830;SDS011;45711;50.108;13.712;2023-05-08T02:49:52;12.00;;;7.50;;
59830;SDS011;45711;50.108;13.712;2023-05-08T02:52:26;12.48;;;7.25;;
59830;SDS011;45711;50.108;13.712;2023-05-08T02:54:56;10.27;;;7.25;;
59830;SDS011;45711;50.108;13.712;2023-05-08T02:57:27;10.43;;;6.75;;
59830;SDS011;45711;50.108;13.712;2023-05-08T03:00:01;17.75;;;7.75;;
59830;SDS011;45711;50.108;13.712;2023-05-08T03:02:31;13.13;;;7.65;;
59830;SDS011;45711;50.108;13.712;2023-05-08T03:05:01;11.75;;;7.88;;
59830;SDS011;45711;50.108;13.712;2023-05-08T03:07:32;14.48;;;8.13;;
59830;SDS011;45711;50.108;13.712;2023-05-08T03:10:04;13.65;;;8.07;;
59830;SDS011;45711;50.108;13.712;2023-05-08T03:12:34;11.32;;;7.80;;
59830;SDS011;45711;50.108;13.712;2023-05-08T03:15:06;10.15;;;7.65;;
59830;SDS011;45711;50.108;13.712;2023-05-08T03:17:37;11.75;;;7.63;;
59830;SDS011;45711;50.108;13.712;2023-05-08T03:20:07;11.55;;;7.68;;
59830;SDS011;45711;50.108;13.712;2023-05-08T03:22:36;14.48;;;7.60;;
59830;SDS011;45711;50.108;13.712;2023-05-08T03:25:05;13.02;;;7.88;;
59830;SDS011;45711;50.108;13.712;2023-05-08T03:27:34;12.35;;;7.30;;
59830;SDS011;45711;50.108;13.712;2023-05-08T03:30:03;22.08;;;8.20;;
59830;SDS011;45711;50.108;13.712;2023-05-08T03:32:30;13.82;;;6.55;;
59830;SDS011;45711;50.108;13.712;2023-05-08T03:34:58;14.57;;;6.38;;
59830;SDS011;45711;50.108;13.712;2023-05-08T03:37:25;10.90;;;7.03;;
59830;SDS011;45711;50.108;13.712;2023-05-08T03:39:51;14.77;;;6.55;;
59830;SDS011;45711;50.108;13.712;2023-05-08T03:42:18;24.60;;;6.72;;
59830;SDS011;45711;50.108;13.712;2023-05-08T03:44:47;22.85;;;7.07;;
59830;SDS011;45711;50.108;13.712;2023-05-08T03:47:15;13.15;;;6.47;;
59830;SDS011;45711;50.108;13.712;2023-05-08T03:49:42;16.10;;;7.47;;
59830;SDS011;45711;50.108;13.712;2023-05-08T03:52:10;14.07;;;8.32;;
59830;SDS011;45711;50.108;13.712;2023-05-08T03:54:36;11.55;;;7.55;;
59830;SDS011;45711;50.108;13.712;2023-05-08T03:57:01;11.27;;;7.63;;
59830;SDS011;45711;50.108;13.712;2023-05-08T03:59:29;10.60;;;6.93;;
59830;SDS011;45711;50.108;13.712;2023-05-08T04:02:08;12.77;;;7.05;;
59830;SDS011;45711;50.108;13.712;2023-05-08T04:04:41;11.95;;;6.97;;
59830;SDS011;45711;50.108;13.712;2023-05-08T04:07:09;12.20;;;7.57;;
59830;SDS011;45711;50.108;13.712;2023-05-08T04:09:42;16.15;;;6.97;;
59830;SDS011;45711;50.108;13.712;2023-05-08T04:12:14;19.98;;;6.47;;
59830;SDS011;45711;50.108;13.712;2023-05-08T04:14:46;15.73;;;8.07;;
59830;SDS011;45711;50.108;13.712;2023-05-08T04:17:14;14.55;;;7.72;;
59830;SDS011;45711;50.108;13.712;2023-05-08T04:19:46;12.73;;;7.95;;
59830;SDS011;45711;50.108;13.712;2023-05-08T04:22:19;15.68;;;8.55;;
59830;SDS011;45711;50.108;13.712;2023-05-08T04:24:49;13.75;;;7.57;;
59830;SDS011;45711;50.108;13.712;2023-05-08T04:27:19;12.20;;;7.20;;
59830;SDS011;45711;50.108;13.712;2023-05-08T04:29:46;13.68;;;8.15;;
59830;SDS011;45711;50.108;13.712;2023-05-08T04:32:12;11.57;;;7.45;;
59830;SDS011;45711;50.108;13.712;2023-05-08T04:34:38;11.18;;;7.60;;
59830;SDS011;45711;50.108;13.712;2023-05-08T04:37:05;13.95;;;7.43;;
59830;SDS011;45711;50.108;13.712;2023-05-08T04:39:31;12.27;;;7.75;;
59830;SDS011;45711;50.108;13.712;2023-05-08T04:41:56;11.20;;;7.35;;
59830;SDS011;45711;50.108;13.712;2023-05-08T04:44:26;11.88;;;7.15;;
59830;SDS011;45711;50.108;13.712;2023-05-08T04:46:54;10.82;;;6.97;;
59830;SDS011;45711;50.108;13.712;2023-05-08T04:49:20;12.57;;;8.98;;
59830;SDS011;45711;50.108;13.712;2023-05-08T04:51:45;18.38;;;7.80;;
59830;SDS011;45711;50.108;13.712;2023-05-08T04:54:11;11.82;;;6.88;;
59830;SDS011;45711;50.108;13.712;2023-05-08T04:56:36;10.55;;;8.00;;
59830;SDS011;45711;50.108;13.712;2023-05-08T04:59:02;15.15;;;8.15;;
59830;SDS011;45711;50.108;13.712;2023-05-08T05:01:27;15.98;;;7.97;;
59830;SDS011;45711;50.108;13.712;2023-05-08T05:03:54;10.75;;;7.53;;
59830;SDS011;45711;50.108;13.712;2023-05-08T05:06:20;11.15;;;7.55;;
59830;SDS011;45711;50.108;13.712;2023-05-08T05:08:45;11.90;;;7.97;;
59830;SDS011;45711;50.108;13.712;2023-05-08T05:11:11;12.43;;;8.05;;
59830;SDS011;45711;50.108;13.712;2023-05-08T05:13:37;10.57;;;8.18;;
59830;SDS011;45711;50.108;13.712;2023-05-08T05:16:02;12.93;;;7.82;;
59830;SDS011;45711;50.108;13.712;2023-05-08T05:18:28;13.05;;;8.45;;
59830;SDS011;45711;50.108;13.712;2023-05-08T05:20:57;12.20;;;7.85;;
59830;SDS011;45711;50.108;13.712;2023-05-08T05:23:23;13.40;;;8.07;;
59830;SDS011;45711;50.108;13.712;2023-05-08T05:25:49;14.05;;;7.68;;
59830;SDS011;45711;50.108;13.712;2023-05-08T05:28:14;8.60;;;6.38;;
59830;SDS011;45711;50.108;13.712;2023-05-08T05:30:40;10.18;;;7.00;;
59830;SDS011;45711;50.108;13.712;2023-05-08T05:33:08;11.70;;;7.97;;
59830;SDS011;45711;50.108;13.712;2023-05-08T05:35:34;11.05;;;8.02;;
59830;SDS011;45711;50.108;13.712;2023-05-08T05:38:01;9.68;;;7.20;;
59830;SDS011;45711;50.108;13.712;2023-05-08T05:40:26;9.82;;;6.90;;
59830;SDS011;45711;50.108;13.712;2023-05-08T05:42:52;9.55;;;6.88;;
59830;SDS011;45711;50.108;13.712;2023-05-08T05:45:18;11.38;;;6.75;;
59830;SDS011;45711;50.108;13.712;2023-05-08T05:47:44;8.95;;;6.65;;
59830;SDS011;45711;50.108;13.712;2023-05-08T05:50:10;9.75;;;6.40;;
59830;SDS011;45711;50.108;13.712;2023-05-08T05:52:36;8.88;;;6.47;;
59830;SDS011;45711;50.108;13.712;2023-05-08T05:55:03;10.77;;;6.88;;
59830;SDS011;45711;50.108;13.712;2023-05-08T05:57:29;11.02;;;6.13;;
59830;SDS011;45711;50.108;13.712;2023-05-08T06:00:00;9.63;;;5.75;;
59830;SDS011;45711;50.108;13.712;2023-05-08T06:02:25;8.52;;;5.90;;
59830;SDS011;45711;50.108;13.712;2023-05-08T06:04:51;11.23;;;6.50;;
59830;SDS011;45711;50.108;13.712;2023-05-08T06:07:17;8.10;;;6.10;;
59830;SDS011;45711;50.108;13.712;2023-05-08T06:09:42;8.05;;;5.78;;
59830;SDS011;45711;50.108;13.712;2023-05-08T06:12:09;6.47;;;5.45;;
59830;SDS011;45711;50.108;13.712;2023-05-08T06:14:36;12.63;;;5.57;;
59830;SDS011;45711;50.108;13.712;2023-05-08T06:17:01;8.82;;;5.57;;
59830;SDS011;45711;50.108;13.712;2023-05-08T06:19:27;8.43;;;5.00;;
59830;SDS011;45711;50.108;13.712;2023-05-08T06:21:52;8.95;;;5.47;;
59830;SDS011;45711;50.108;13.712;2023-05-08T06:24:18;8.25;;;5.45;;
59830;SDS011;45711;50.108;13.712;2023-05-08T06:26:44;8.55;;;5.85;;
59830;SDS011;45711;50.108;13.712;2023-05-08T06:29:12;7.32;;;5.70;;
59830;SDS011;45711;50.108;13.712;2023-05-08T06:31:37;6.57;;;5.30;;
59830;SDS011;45711;50.108;13.712;2023-05-08T06:34:03;8.20;;;5.47;;
59830;SDS011;45711;50.108;13.712;2023-05-08T06:36:28;6.28;;;4.93;;
59830;SDS011;45711;50.108;13.712;2023-05-08T06:38:56;7.90;;;5.35;;
59830;SDS011;45711;50.108;13.712;2023-05-08T06:41:23;9.82;;;5.43;;
59830;SDS011;45711;50.108;13.712;2023-05-08T06:43:49;10.13;;;5.97;;
59830;SDS011;45711;50.108;13.712;2023-05-08T06:46:16;7.38;;;5.20;;
59830;SDS011;45711;50.108;13.712;2023-05-08T06:48:42;28.95;;;6.18;;
59830;SDS011;45711;50.108;13.712;2023-05-08T06:51:07;6.85;;;5.00;;
59830;SDS011;45711;50.108;13.712;2023-05-08T06:53:33;6.00;;;4.75;;
59830;SDS011;45711;50.108;13.712;2023-05-08T06:55:58;8.00;;;5.80;;
59830;SDS011;45711;50.108;13.712;2023-05-08T06:58:24;8.50;;;5.25;;
59830;SDS011;45711;50.108;13.712;2023-05-08T07:00:49;10.02;;;5.10;;
59830;SDS011;45711;50.108;13.712;2023-05-08T07:03:16;5.15;;;4.35;;
59830;SDS011;45711;50.108;13.712;2023-05-08T07:05:45;5.45;;;4.00;;
59830;SDS011;45711;50.108;13.712;2023-05-08T07:08:11;5.53;;;4.07;;
59830;SDS011;45711;50.108;13.712;2023-05-08T07:10:36;4.95;;;3.70;;
59830;SDS011;45711;50.108;13.712;2023-05-08T07:13:02;5.03;;;3.67;;
59830;SDS011;45711;50.108;13.712;2023-05-08T07:15:27;4.85;;;3.95;;
59830;SDS011;45711;50.108;13.712;2023-05-08T07:17:58;6.95;;;4.32;;
59830;SDS011;45711;50.108;13.712;2023-05-08T07:20:25;5.88;;;4.47;;
59830;SDS011;45711;50.108;13.712;2023-05-08T07:22:51;5.20;;;4.65;;
59830;SDS011;45711;50.108;13.712;2023-05-08T07:25:16;5.03;;;3.90;;
59830;SDS011;45711;50.108;13.712;2023-05-08T07:27:42;5.70;;;4.15;;
59830;SDS011;45711;50.108;13.712;2023-05-08T07:30:08;6.00;;;4.47;;
59830;SDS011;45711;50.108;13.712;2023-05-08T07:32:36;4.10;;;3.33;;
59830;SDS011;45711;50.108;13.712;2023-05-08T07:35:03;5.32;;;3.88;;
59830;SDS011;45711;50.108;13.712;2023-05-08T07:37:31;6.32;;;3.55;;
59830;SDS011;45711;50.108;13.712;2023-05-08T07:39:57;5.95;;;3.85;;
59830;SDS011;45711;50.108;13.712;2023-05-08T07:42:22;6.40;;;3.92;;
59830;SDS011;45711;50.108;13.712;2023-05-08T07:44:48;5.35;;;3.88;;
59830;SDS011;45711;50.108;13.712;2023-05-08T07:47:13;8.60;;;4.03;;
59830;SDS011;45711;50.108;13.712;2023-05-08T07:49:39;4.60;;;3.88;;
59830;SDS011;45711;50.108;13.712;2023-05-08T07:52:05;5.90;;;3.63;;
59830;SDS011;45711;50.108;13.712;2023-05-08T07:54:32;5.13;;;3.47;;
59830;SDS011;45711;50.108;13.712;2023-05-08T07:56:57;4.70;;;3.50;;
59830;SDS011;45711;50.108;13.712;2023-05-08T07:59:23;6.60;;;3.53;;
59830;SDS011;45711;50.108;13.712;2023-05-08T08:01:48;3.92;;;3.40;;
59830;SDS011;45711;50.108;13.712;2023-05-08T08:04:14;4.97;;;3.33;;
59830;SDS011;45711;50.108;13.712;2023-05-08T08:06:40;7.97;;;3.70;;
59830;SDS011;45711;50.108;13.712;2023-05-08T08:09:05;4.82;;;3.53;;
59830;SDS011;45711;50.108;13.712;2023-05-08T08:11:33;6.38;;;3.28;;
59830;SDS011;45711;50.108;13.712;2023-05-08T08:13:58;5.85;;;3.15;;
59830;SDS011;45711;50.108;13.712;2023-05-08T08:16:24;6.05;;;3.70;;
59830;SDS011;45711;50.108;13.712;2023-05-08T08:18:49;4.78;;;3.63;;
59830;SDS011;45711;50.108;13.712;2023-05-08T08:21:16;4.30;;;3.15;;
59830;SDS011;45711;50.108;13.712;2023-05-08T08:23:42;4.97;;;3.45;;
59830;SDS011;45711;50.108;13.712;2023-05-08T08:26:08;4.32;;;2.95;;
59830;SDS011;45711;50.108;13.712;2023-05-08T08:28:35;3.85;;;2.88;;
59830;SDS011;45711;50.108;13.712;2023-05-08T08:31:00;4.15;;;3.25;;
59830;SDS011;45711;50.108;13.712;2023-05-08T08:33:26;5.70;;;3.65;;
59830;SDS011;45711;50.108;13.712;2023-05-08T08:35:53;4.68;;;2.95;;
59830;SDS011;45711;50.108;13.712;2023-05-08T08:38:18;5.93;;;4.15;;
59830;SDS011;45711;50.108;13.712;2023-05-08T08:40:44;5.22;;;3.53;;
59830;SDS011;45711;50.108;13.712;2023-05-08T08:43:09;4.75;;;3.05;;
59830;SDS011;45711;50.108;13.712;2023-05-08T08:45:36;6.18;;;3.63;;
59830;SDS011;45711;50.108;13.712;2023-05-08T08:48:03;5.82;;;2.72;;
59830;SDS011;45711;50.108;13.712;2023-05-08T08:50:31;5.20;;;3.63;;
59830;SDS011;45711;50.108;13.712;2023-05-08T08:52:59;5.78;;;3.58;;
59830;SDS011;45711;50.108;13.712;2023-05-08T08:55:29;5.38;;;3.92;;
59830;SDS011;45711;50.108;13.712;2023-05-08T08:57:59;4.93;;;3.13;;
59830;SDS011;45711;50.108;13.712;2023-05-08T09:00:31;3.58;;;2.70;;
59830;SDS011;45711;50.108;13.712;2023-05-08T09:03:01;4.90;;;3.42;;
59830;SDS011;45711;50.108;13.712;2023-05-08T09:05:30;6.13;;;3.65;;
59830;SDS011;45711;50.108;13.712;2023-05-08T09:07:55;6.07;;;3.67;;
59830;SDS011;45711;50.108;13.712;2023-05-08T09:10:22;5.03;;;3.60;;
59830;SDS011;45711;50.108;13.712;2023-05-08T09:12:48;6.28;;;3.60;;
59830;SDS011;45711;50.108;13.712;2023-05-08T09:15:14;4.22;;;3.25;;
59830;SDS011;45711;50.108;13.712;2023-05-08T09:17:40;4.78;;;3.65;;
59830;SDS011;45711;50.108;13.712;2023-05-08T09:20:07;3.67;;;3.20;;
59830;SDS011;45711;50.108;13.712;2023-05-08T09:22:34;2.97;;;2.60;;
59830;SDS011;45711;50.108;13.712;2023-05-08T09:25:00;8.10;;;3.70;;
59830;SDS011;45711;50.108;13.712;2023-05-08T09:27:28;4.40;;;3.55;;
59830;SDS011;45711;50.108;13.712;2023-05-08T09:29:58;4.57;;;3.03;;
59830;SDS011;45711;50.108;13.712;2023-05-08T09:32:26;4.95;;;3.53;;
59830;SDS011;45711;50.108;13.712;2023-05-08T09:34:52;3.42;;;2.88;;
59830;SDS011;45711;50.108;13.712;2023-05-08T09:37:19;4.35;;;3.05;;
59830;SDS011;45711;50.108;13.712;2023-05-08T09:39:45;3.42;;;2.72;;
59830;SDS011;45711;50.108;13.712;2023-05-08T09:42:12;4.30;;;3.15;;
59830;SDS011;45711;50.108;13.712;2023-05-08T09:44:44;4.63;;;3.25;;
59830;SDS011;45711;50.108;13.712;2023-05-08T09:47:11;8.30;;;3.40;;
59830;SDS011;45711;50.108;13.712;2023-05-08T09:49:38;5.15;;;2.85;;
59830;SDS011;45711;50.108;13.712;2023-05-08T09:52:07;5.78;;;2.95;;
59830;SDS011;45711;50.108;13.712;2023-05-08T09:54:40;5.03;;;3.00;;
59830;SDS011;45711;50.108;13.712;2023-05-08T09:57:12;6.97;;;3.13;;
59830;SDS011;45711;50.108;13.712;2023-05-08T09:59:40;4.22;;;2.65;;
59830;SDS011;45711;50.108;13.712;2023-05-08T10:02:09;3.72;;;2.67;;
59830;SDS011;45711;50.108;13.712;2023-05-08T10:04:36;4.60;;;2.83;;
59830;SDS011;45711;50.108;13.712;2023-05-08T10:07:02;4.72;;;3.17;;
59830;SDS011;45711;50.108;13.712;2023-05-08T10:09:28;3.47;;;2.30;;
59830;SDS011;45711;50.108;13.712;2023-05-08T10:11:55;4.60;;;2.75;;
59830;SDS011;45711;50.108;13.712;2023-05-08T10:14:22;3.63;;;2.80;;
59830;SDS011;45711;50.108;13.712;2023-05-08T10:16:48;5.25;;;3.00;;
59830;SDS011;45711;50.108;13.712;2023-05-08T10:19:17;5.32;;;3.00;;
59830;SDS011;45711;50.108;13.712;2023-05-08T10:21:45;3.47;;;2.70;;
59830;SDS011;45711;50.108;13.712;2023-05-08T10:24:12;5.28;;;3.38;;
59830;SDS011;45711;50.108;13.712;2023-05-08T10:26:41;5.30;;;3.10;;
59830;SDS011;45711;50.108;13.712;2023-05-08T10:29:10;5.32;;;3.10;;
59830;SDS011;45711;50.108;13.712;2023-05-08T10:31:41;6.30;;;3.17;;
59830;SDS011;45711;50.108;13.712;2023-05-08T10:34:09;4.72;;;3.38;;
59830;SDS011;45711;50.108;13.712;2023-05-08T10:36:40;4.13;;;2.70;;
59830;SDS011;45711;50.108;13.712;2023-05-08T10:39:06;3.25;;;2.72;;
59830;SDS011;45711;50.108;13.712;2023-05-08T10:41:32;4.57;;;2.50;;
59830;SDS011;45711;50.108;13.712;2023-05-08T10:44:00;4.20;;;2.90;;
59830;SDS011;45711;50.108;13.712;2023-05-08T10:46:32;4.50;;;2.70;;
59830;SDS011;45711;50.108;13.712;2023-05-08T10:49:03;10.48;;;3.35;;
59830;SDS011;45711;50.108;13.712;2023-05-08T10:51:39;6.18;;;3.60;;
59830;SDS011;45711;50.108;13.712;2023-05-08T10:54:11;7.32;;;3.28;;
59830;SDS011;45711;50.108;13.712;2023-05-08T10:56:42;3.80;;;2.63;;
59830;SDS011;45711;50.108;13.712;2023-05-08T10:59:08;7.15;;;2.67;;
59830;SDS011;45711;50.108;13.712;2023-05-08T11:01:47;4.47;;;2.95;;
59830;SDS011;45711;50.108;13.712;2023-05-08T11:04:20;5.47;;;3.20;;
59830;SDS011;45711;50.108;13.712;2023-05-08T11:06:49;4.93;;;3.10;;
59830;SDS011;45711;50.108;13.712;2023-05-08T11:09:21;5.60;;;2.75;;
59830;SDS011;45711;50.108;13.712;2023-05-08T11:11:58;5.32;;;2.90;;
59830;SDS011;45711;50.108;13.712;2023-05-08T11:14:30;2.92;;;2.20;;
59830;SDS011;45711;50.108;13.712;2023-05-08T11:17:06;5.15;;;2.30;;
59830;SDS011;45711;50.108;13.712;2023-05-08T11:19:33;8.10;;;2.80;;
59830;SDS011;45711;50.108;13.712;2023-05-08T11:22:12;51.92;;;4.28;;
59830;SDS011;45711;50.108;13.712;2023-05-08T11:24:46;2.53;;;2.13;;
59830;SDS011;45711;50.108;13.712;2023-05-08T11:27:13;3.22;;;2.33;;
59830;SDS011;45711;50.108;13.712;2023-05-08T11:29:39;4.15;;;2.38;;
59830;SDS011;45711;50.108;13.712;2023-05-08T11:32:06;5.95;;;2.90;;
59830;SDS011;45711;50.108;13.712;2023-05-08T11:34:44;6.13;;;3.40;;
59830;SDS011;45711;50.108;13.712;2023-05-08T11:37:10;4.53;;;2.67;;
59830;SDS011;45711;50.108;13.712;2023-05-08T11:39:40;3.83;;;2.58;;
59830;SDS011;45711;50.108;13.712;2023-05-08T11:45:00;4.00;;;2.40;;
59830;SDS011;45711;50.108;13.712;2023-05-08T11:47:31;6.10;;;2.80;;
59830;SDS011;45711;50.108;13.712;2023-05-08T11:50:02;3.90;;;3.17;;
59830;SDS011;45711;50.108;13.712;2023-05-08T11:52:30;6.40;;;2.33;;
59830;SDS011;45711;50.108;13.712;2023-05-08T11:54:56;5.35;;;2.90;;
59830;SDS011;45711;50.108;13.712;2023-05-08T11:57:25;5.75;;;3.03;;
59830;SDS011;45711;50.108;13.712;2023-05-08T11:59:51;6.75;;;3.30;;
59830;SDS011;45711;50.108;13.712;2023-05-08T12:02:17;6.15;;;3.10;;
59830;SDS011;45711;50.108;13.712;2023-05-08T12:04:44;9.93;;;2.90;;
59830;SDS011;45711;50.108;13.712;2023-05-08T12:07:10;9.23;;;2.67;;
59830;SDS011;45711;50.108;13.712;2023-05-08T12:09:36;7.53;;;3.17;;
59830;SDS011;45711;50.108;13.712;2023-05-08T12:12:02;5.15;;;2.90;;
59830;SDS011;45711;50.108;13.712;2023-05-08T12:14:28;10.32;;;2.70;;
59830;SDS011;45711;50.108;13.712;2023-05-08T12:16:53;3.33;;;2.80;;
59830;SDS011;45711;50.108;13.712;2023-05-08T12:19:19;4.28;;;2.78;;
59830;SDS011;45711;50.108;13.712;2023-05-08T12:21:46;3.30;;;2.25;;
59830;SDS011;45711;50.108;13.712;2023-05-08T12:24:15;3.17;;;2.47;;
59830;SDS011;45711;50.108;13.712;2023-05-08T12:26:47;3.78;;;3.10;;
59830;SDS011;45711;50.108;13.712;2023-05-08T12:29:13;5.28;;;2.90;;
59830;SDS011;45711;50.108;13.712;2023-05-08T12:31:43;7.82;;;2.72;;
59830;SDS011;45711;50.108;13.712;2023-05-08T12:34:08;3.85;;;2.50;;
59830;SDS011;45711;50.108;13.712;2023-05-08T12:36:34;3.50;;;2.63;;
59830;SDS011;45711;50.108;13.712;2023-05-08T12:39:14;3.92;;;2.55;;
59830;SDS011;45711;50.108;13.712;2023-05-08T12:41:41;5.15;;;2.42;;
59830;SDS011;45711;50.108;13.712;2023-05-08T12:44:17;3.90;;;2.50;;
59830;SDS011;45711;50.108;13.712;2023-05-08T12:46:48;3.20;;;2.63;;
59830;SDS011;45711;50.108;13.712;2023-05-08T12:49:21;3.45;;;2.47;;
59830;SDS011;45711;50.108;13.712;2023-05-08T12:51:47;3.55;;;2.70;;
59830;SDS011;45711;50.108;13.712;2023-05-08T12:54:16;3.00;;;2.70;;
59830;SDS011;45711;50.108;13.712;2023-05-08T12:56:41;4.22;;;2.70;;
59830;SDS011;45711;50.108;13.712;2023-05-08T12:59:08;4.70;;;2.53;;
59830;SDS011;45711;50.108;13.712;2023-05-08T13:01:39;13.07;;;2.55;;
59830;SDS011;45711;50.108;13.712;2023-05-08T13:04:05;7.35;;;2.80;;
59830;SDS011;45711;50.108;13.712;2023-05-08T13:06:31;3.63;;;2.50;;
59830;SDS011;45711;50.108;13.712;2023-05-08T13:08:57;3.75;;;2.08;;
59830;SDS011;45711;50.108;13.712;2023-05-08T13:11:30;6.38;;;2.50;;
59830;SDS011;45711;50.108;13.712;2023-05-08T13:13:57;4.47;;;2.55;;
59830;SDS011;45711;50.108;13.712;2023-05-08T13:16:25;3.92;;;2.55;;
59830;SDS011;45711;50.108;13.712;2023-05-08T13:18:50;5.78;;;2.80;;
59830;SDS011;45711;50.108;13.712;2023-05-08T13:21:16;11.07;;;2.42;;
59830;SDS011;45711;50.108;13.712;2023-05-08T13:23:41;8.30;;;4.28;;
59830;SDS011;45711;50.108;13.712;2023-05-08T13:26:07;3.33;;;2.50;;
59830;SDS011;45711;50.108;13.712;2023-05-08T13:28:34;5.63;;;2.63;;
59830;SDS011;45711;50.108;13.712;2023-05-08T13:31:03;3.80;;;2.42;;
59830;SDS011;45711;50.108;13.712;2023-05-08T13:33:30;5.80;;;2.55;;
59830;SDS011;45711;50.108;13.712;2023-05-08T13:35:55;3.92;;;2.60;;
59830;SDS011;45711;50.108;13.712;2023-05-08T13:38:21;3.42;;;2.42;;
59830;SDS011;45711;50.108;13.712;2023-05-08T13:40:47;5.45;;;2.50;;
59830;SDS011;45711;50.108;13.712;2023-05-08T13:43:12;4.38;;;2.67;;
59830;SDS011;45711;50.108;13.712;2023-05-08T13:45:39;3.95;;;2.45;;
59830;SDS011;45711;50.108;13.712;2023-05-08T13:48:07;2.60;;;1.95;;
59830;SDS011;45711;50.108;13.712;2023-05-08T13:50:33;4.50;;;2.20;;
59830;SDS011;45711;50.108;13.712;2023-05-08T13:52:58;6.32;;;2.33;;
59830;SDS011;45711;50.108;13.712;2023-05-08T13:55:24;4.60;;;2.30;;
59830;SDS011;45711;50.108;13.712;2023-05-08T13:57:50;2.55;;;1.92;;
59830;SDS011;45711;50.108;13.712;2023-05-08T14:00:16;4.00;;;2.10;;
59830;SDS011;45711;50.108;13.712;2023-05-08T14:02:43;6.45;;;2.10;;
59830;SDS011;45711;50.108;13.712;2023-05-08T14:05:11;3.90;;;2.40;;
59830;SDS011;45711;50.108;13.712;2023-05-08T14:07:39;2.45;;;2.15;;
59830;SDS011;45711;50.108;13.712;2023-05-08T14:10:05;6.45;;;2.67;;
59830;SDS011;45711;50.108;13.712;2023-05-08T14:12:31;3.10;;;2.35;;
59830;SDS011;45711;50.108;13.712;2023-05-08T14:15:02;3.45;;;2.30;;
59830;SDS011;45711;50.108;13.712;2023-05-08T14:17:28;7.22;;;2.03;;
59830;SDS011;45711;50.108;13.712;2023-05-08T14:19:58;7.65;;;2.13;;
59830;SDS011;45711;50.108;13.712;2023-05-08T14:22:27;9.23;;;2.40;;
59830;SDS011;45711;50.108;13.712;2023-05-08T14:24:55;5.35;;;2.40;;
59830;SDS011;45711;50.108;13.712;2023-05-08T14:27:23;3.42;;;2.40;;
59830;SDS011;45711;50.108;13.712;2023-05-08T14:29:49;3.95;;;2.10;;
59830;SDS011;45711;50.108;13.712;2023-05-08T14:32:14;4.60;;;2.55;;
59830;SDS011;45711;50.108;13.712;2023-05-08T14:34:40;3.22;;;2.67;;
59830;SDS011;45711;50.108;13.712;2023-05-08T14:37:07;2.97;;;2.42;;
59830;SDS011;45711;50.108;13.712;2023-05-08T14:39:33;6.72;;;2.38;;